N6NFA-1 Weather Reports


Display with metric or nautical units.
time (UTC)temp
F
wind
direction
speed
MPH
gust
MPH
rain 1hr
in
rain 24hr
in
rain mn
in
humidity
%
barometer
mb
20210927051537 62 168 0.0 5.0 0.00 0.00 0.00 87 1008.2
20210927050142 62 185 0.0 4.0 0.00 0.00 0.00 86 1008.2
20210927044611 62 185 0.0 1.0 0.00 0.00 0.00 85 1008.1
20210927043103 63 185 0.0 4.0 0.00 0.00 0.00 85 1008.0
20210927041545 63 185 0.0 4.0 0.00 0.00 0.00 83 1007.9
20210927040110 64 175 0.0 5.0 0.00 0.00 0.00 82 1007.8
20210927034533 64 87 0.0 2.0 0.00 0.00 0.00 81 1007.7
20210927033046 65 87 1.0 4.0 0.00 0.00 0.00 80 1007.7
20210927031609 65 97 2.0 5.0 0.00 0.00 0.00 79 1007.6
20210927030032 66 93 2.0 7.0 0.00 0.00 0.00 79 1007.7
20210927024553 66 92 3.0 8.0 0.00 0.00 0.00 77 1007.6
20210927023045 67 86 1.0 5.0 0.00 0.00 0.00 76 1007.2
20210927021541 68 89 0.0 7.0 0.00 0.00 0.00 75 1007.0
20210927020032 69 81 3.0 9.0 0.00 0.00 0.00 73 1006.7
20210927014536 69 82 2.0 9.0 0.00 0.00 0.00 72 1006.4
20210927013033 71 88 2.0 8.0 0.00 0.00 0.00 70 1006.0
20210927011530 72 80 2.0 9.0 0.00 0.00 0.00 67 1005.9
20210927010044 74 73 3.0 9.0 0.00 0.00 0.00 64 1005.8
20210927004537 74 79 5.0 9.0 0.00 0.00 0.00 62 1005.6
20210927003041 76 95 2.0 8.0 0.00 0.00 0.00 60 1005.5
20210927001616 77 78 4.0 11.0 0.00 0.00 0.00 59 1005.4
20210927000051 78 98 4.0 9.0 0.00 0.00 0.00 57 1005.3
20210926234532 78 80 2.0 10.0 0.00 0.00 0.00 56 1005.4
20210926233044 79 47 0.0 9.0 0.00 0.00 0.00 56 1005.2
20210926231543 79 77 4.0 11.0 0.00 0.00 0.00 55 1005.2
20210926230021 78 87 2.0 11.0 0.00 0.00 0.00 55 1005.4
20210926224517 79 125 6.0 12.0 0.00 0.00 0.00 55 1005.6
20210926223012 79 97 4.0 9.0 0.00 0.00 0.00 53 1005.7
20210926221507 80 89 2.0 9.0 0.00 0.00 0.00 52 1005.8
20210926220006 79 54 3.0 9.0 0.00 0.00 0.00 53 1005.9
20210926214511 80 91 5.0 12.0 0.00 0.00 0.00 51 1006.0
20210926213003 79 115 4.0 10.0 0.00 0.00 0.00 53 1006.1
20210926211502 79 111 4.0 12.0 0.00 0.00 0.00 53 1006.1
20210926210206 78 43 0.0 13.0 0.00 0.00 0.00 55 1006.2
20210926204659 78 99 5.0 10.0 0.00 0.00 0.00 55 1006.3
20210926203138 77 77 4.0 10.0 0.00 0.00 0.00 56 1006.5
20210926201601 78 93 3.0 8.0 0.00 0.00 0.00 54 1006.7
20210926200202 76 120 3.0 9.0 0.00 0.00 0.00 58 1006.8
20210926194609 75 137 2.0 10.0 0.00 0.00 0.00 60 1006.9
20210926193059 74 124 2.0 6.0 0.00 0.00 0.00 62 1007.2
20210926191635 72 65 0.0 10.0 0.00 0.00 0.00 66 1007.3
20210926190137 71 180 3.0 10.0 0.00 0.00 0.00 68 1007.3
20210926184625 71 168 1.0 8.0 0.00 0.00 0.00 69 1007.6
20210926183128 70 134 3.0 6.0 0.00 0.00 0.00 70 1007.7
20210926181603 69 180 2.0 8.0 0.00 0.00 0.00 75 1007.9
20210926180120 69 69 0.0 4.0 0.00 0.00 0.00 72 1007.9
20210926174543 68 195 1.0 5.0 0.00 0.00 0.00 77 1007.9
20210926173111 65 88 4.0 7.0 0.00 0.00 0.00 81 1008.1
20210926171542 65 110 4.0 8.0 0.00 0.00 0.00 83 1008.1
20210926170044 64 248 0.0 5.0 0.00 0.00 0.00 85 1008.3
20210926164543 63 266 0.0 5.0 0.00 0.00 0.00 87 1008.4
20210926163024 63 2 0.0 1.0 0.00 0.00 0.00 88 1008.4
20210926161554 62 2 0.0 1.0 0.00 0.00 0.00 89 1008.2
20210926160013 62 4 0.0 2.0 0.00 0.00 0.00 89 1008.2
20210926154516 62 39 0.0 0.0 0.00 0.00 0.00 90 1008.0
20210926153035 61 39 0.0 1.0 0.00 0.00 0.00 90 1008.0
20210926151509 61 41 0.0 2.0 0.00 0.00 0.00 90 1008.0
20210926150019 61 42 0.0 1.0 0.00 0.00 0.00 91 1007.9
20210926144504 61 42 0.0 2.0 0.00 0.00 0.00 91 1007.9
20210926143005 61 39 0.0 4.0 0.00 0.00 0.00 91 1007.9
20210926141606 61 39 0.0 0.0 0.00 0.00 0.00 91 1007.8
20210926140109 61 39 0.0 1.0 0.00 0.00 0.00 91 1007.7
20210926134634 61 39 1.0 4.0 0.00 0.00 0.00 91 1007.5
20210926133059 61 85 0.0 4.0 0.00 0.00 0.00 91 1007.3
20210926131642 61 87 0.0 0.0 0.00 0.00 0.00 91 1007.3
20210926130153 61 87 0.0 2.0 0.00 0.00 0.00 91 1007.3
20210926124703 61 87 0.0 2.0 0.00 0.00 0.00 91 1007.1
20210926123123 61 86 0.0 2.0 0.00 0.00 0.00 90 1006.9
20210926121631 61 86 0.0 1.0 0.00 0.00 0.00 90 1006.9
20210926120150 61 86 0.0 0.0 0.00 0.00 0.00 90 1006.9
20210926114608 61 86 0.0 0.0 0.00 0.00 0.00 90 1007.0
20210926113136 61 86 0.0 0.0 0.00 0.00 0.00 90 1006.8
20210926111622 61 86 0.0 0.0 0.00 0.00 0.00 90 1007.1
20210926110136 61 86 0.0 0.0 0.00 0.00 0.00 90 1007.2
20210926104614 61 86 0.0 0.0 0.00 0.00 0.00 90 1007.3
20210926103209 61 86 0.0 2.0 0.00 0.00 0.00 90 1007.2
20210926101607 61 86 1.0 5.0 0.00 0.00 0.00 89 1007.2
20210926100103 62 92 2.0 6.0 0.00 0.00 0.00 89 1007.1
20210926094623 62 101 0.0 2.0 0.00 0.00 0.00 88 1007.2
20210926093140 62 98 2.0 6.0 0.00 0.00 0.00 88 1006.8
20210926091610 62 85 0.0 4.0 0.00 0.00 0.00 88 1006.9
20210926090057 63 85 0.0 2.0 0.00 0.00 0.00 88 1006.8
20210926084555 62 85 0.0 0.0 0.00 0.00 0.00 88 1006.8
20210926083101 62 85 0.0 0.0 0.00 0.00 0.00 87 1007.1
20210926081551 62 85 0.0 0.0 0.00 0.00 0.00 87 1007.1
20210926080051 62 85 0.0 0.0 0.00 0.00 0.00 86 1007.0
20210926074544 62 85 0.0 2.0 0.00 0.00 0.00 86 1007.1
20210926073047 63 85 0.0 2.0 0.00 0.00 0.00 85 1007.2
20210926071559 63 85 1.0 5.0 0.00 0.00 0.00 84 1007.2
20210926070059 64 106 2.0 5.0 0.00 0.00 0.00 83 1007.2
20210926064600 64 108 0.0 1.0 0.00 0.00 0.00 82 1007.2
20210926063040 65 108 0.0 4.0 0.00 0.00 0.00 80 1007.2
20210926061542 65 108 0.0 2.0 0.00 0.00 0.00 79 1007.2
20210926060109 66 108 0.0 0.0 0.00 0.00 0.00 78 1007.2
20210926054551 66 108 0.0 1.0 0.00 0.00 0.00 77 1006.9
20210926053054 67 108 0.0 0.0 0.00 0.00 0.00 76 1006.8